Time;durP1;ratioP1;P1;durP2;ratioP2;P2;SDS_P1;SDS_P2;PMS_P1;PMS_P2;Temp;Humidity;BMP_temperature;BMP_pressure;BME280_temperature;BME280_humidity;BME280_pressure;Samples;Min_cycle;Max_cycle;Signal;HPM_P1;HPM_P2
2021/03/02 00:00:07;;;;;;;27.77;16.93;;;3.60;1.00;;;;;;5041584;28;20452;-72
2021/03/02 00:02:32;;;;;;;25.53;14.87;;;3.60;1.00;;;;;;5041079;28;20571;-72
2021/03/02 00:04:58;;;;;;;21.93;14.27;;;3.60;1.00;;;;;;5039133;28;20479;-72
2021/03/02 00:07:26;;;;;;;26.43;15.50;;;3.50;1.00;;;;;;5045369;28;20516;-71
2021/03/02 00:09:53;;;;;;;23.03;16.10;;;3.50;1.00;;;;;;5042529;28;20213;-72
2021/03/02 00:12:19;;;;;;;22.13;15.63;;;3.50;1.00;;;;;;5042323;28;20480;-71
2021/03/02 00:14:45;;;;;;;26.87;15.93;;;3.40;1.00;;;;;;5040968;28;20478;-74
2021/03/02 00:17:27;;;;;;;25.07;15.83;;;3.40;1.00;;;;;;5040576;28;20444;-73
2021/03/02 00:20:01;;;;;;;24.40;16.30;;;3.40;1.00;;;;;;5043973;28;20826;-73
2021/03/02 00:22:30;;;;;;;24.23;17.27;;;3.30;1.00;;;;;;5043728;28;20448;-74
2021/03/02 00:24:58;;;;;;;28.30;16.33;;;3.30;1.00;;;;;;5044345;28;20531;-75
2021/03/02 00:27:24;;;;;;;25.60;16.80;;;3.20;1.00;;;;;;5043449;28;20542;-74
2021/03/02 00:29:51;;;;;;;22.50;14.53;;;3.10;1.00;;;;;;5039635;28;20476;-74
2021/03/02 00:32:21;;;;;;;24.80;16.17;;;3.10;1.00;;;;;;5034538;28;20455;-74
2021/03/02 00:34:47;;;;;;;28.93;16.47;;;3.00;1.00;;;;;;5033028;28;20462;-74
2021/03/02 00:37:13;;;;;;;29.03;17.50;;;3.10;1.00;;;;;;5042104;28;20436;-74
2021/03/02 00:39:39;;;;;;;27.10;16.43;;;3.00;1.00;;;;;;5026664;28;20512;-74
2021/03/02 00:42:05;;;;;;;28.10;16.60;;;2.90;1.00;;;;;;5039804;28;20444;-74
2021/03/02 00:44:31;;;;;;;25.27;17.60;;;3.00;1.00;;;;;;5023339;28;22105;-73
2021/03/02 00:46:57;;;;;;;29.40;17.60;;;2.90;1.00;;;;;;5023366;28;20439;-74
2021/03/02 00:49:23;;;;;;;26.70;17.20;;;2.90;1.00;;;;;;5023976;28;20206;-74
2021/03/02 00:51:48;;;;;;;27.93;17.37;;;2.90;1.00;;;;;;5022233;28;21273;-74
2021/03/02 00:54:16;;;;;;;26.80;17.63;;;2.80;1.00;;;;;;5033327;28;20200;-74
2021/03/02 00:56:42;;;;;;;25.17;16.37;;;2.90;1.00;;;;;;5040702;28;20450;-75
2021/03/02 00:59:08;;;;;;;28.93;16.67;;;2.80;1.00;;;;;;5023801;28;21102;-74
2021/03/02 01:01:34;;;;;;;25.07;16.50;;;2.80;1.00;;;;;;5026695;28;20459;-74
2021/03/02 01:04:04;;;;;;;25.90;17.23;;;2.80;1.00;;;;;;5024329;28;20308;-74
2021/03/02 01:06:30;;;;;;;28.20;18.00;;;2.80;1.00;;;;;;5043752;28;20463;-74
2021/03/02 01:08:57;;;;;;;25.60;16.87;;;2.90;1.00;;;;;;5044064;28;20443;-74
2021/03/02 01:11:23;;;;;;;25.27;17.07;;;2.90;1.00;;;;;;5025098;28;20471;-74
2021/03/02 01:13:50;;;;;;;29.60;15.97;;;2.90;1.00;;;;;;5043663;28;21393;-74
2021/03/02 01:16:16;;;;;;;21.80;15.20;;;2.90;1.00;;;;;;5043022;28;21176;-74
2021/03/02 01:18:42;;;;;;;25.23;15.60;;;2.90;1.00;;;;;;5043292;28;20444;-74
2021/03/02 01:21:08;;;;;;;25.93;15.20;;;2.90;1.00;;;;;;5041905;28;21007;-74
2021/03/02 01:23:37;;;;;;;23.93;14.10;;;2.80;1.00;;;;;;5043277;28;20321;-74
2021/03/02 01:26:05;;;;;;;21.83;15.37;;;2.80;1.00;;;;;;5045337;28;20454;-74
2021/03/02 01:28:34;;;;;;;22.17;14.80;;;2.90;1.00;;;;;;5043067;28;20318;-74
2021/03/02 01:31:00;;;;;;;23.17;14.77;;;2.80;1.00;;;;;;5025790;28;20475;-74
2021/03/02 01:33:26;;;;;;;21.63;14.17;;;2.80;1.00;;;;;;5043930;28;21248;-74
2021/03/02 01:35:52;;;;;;;23.50;15.63;;;2.70;1.00;;;;;;5043414;28;20469;-74
2021/03/02 01:38:18;;;;;;;25.37;13.83;;;2.60;1.00;;;;;;5046825;28;20185;-74
2021/03/02 01:40:44;;;;;;;22.23;13.50;;;2.70;1.00;;;;;;5046628;28;21115;-74
2021/03/02 01:43:12;;;;;;;24.30;13.87;;;2.70;1.00;;;;;;5048901;28;20437;-74
2021/03/02 01:45:38;;;;;;;27.00;13.90;;;2.70;1.00;;;;;;5045218;28;20507;-74
2021/03/02 01:48:04;;;;;;;24.30;15.60;;;2.70;1.00;;;;;;5028694;28;20499;-74
2021/03/02 01:50:30;;;;;;;25.83;13.60;;;2.60;1.00;;;;;;5048809;28;21099;-74
2021/03/02 01:52:56;;;;;;;21.83;14.13;;;2.70;1.00;;;;;;5032960;28;20442;-75
2021/03/02 01:55:22;;;;;;;20.73;12.93;;;2.70;1.00;;;;;;5025389;28;20261;-74
2021/03/02 01:57:47;;;;;;;21.63;13.53;;;2.70;1.00;;;;;;5041457;28;21054;-73
2021/03/02 02:00:28;;;;;;;23.47;14.07;;;2.60;1.00;;;;;;5038711;28;20185;-74
2021/03/02 02:03:16;;;;;;;21.33;14.40;;;2.50;1.00;;;;;;5040350;28;20444;-75
2021/03/02 02:05:46;;;;;;;24.40;16.13;;;2.50;1.00;;;;;;5041159;28;20979;-74
2021/03/02 02:08:16;;;;;;;19.20;15.13;;;2.60;1.00;;;;;;5041102;28;20451;-74
2021/03/02 02:11:00;;;;;;;26.53;15.17;;;2.60;1.00;;;;;;5039172;28;21125;-75
2021/03/02 02:13:33;;;;;;;23.73;14.43;;;2.60;1.00;;;;;;5041096;28;20431;-74
2021/03/02 02:16:04;;;;;;;25.23;14.07;;;2.60;1.00;;;;;;5041376;28;21695;-74
2021/03/02 02:18:33;;;;;;;19.27;14.17;;;2.60;1.00;;;;;;5042163;28;20466;-74
2021/03/02 02:21:05;;;;;;;24.30;15.30;;;2.60;1.00;;;;;;5043204;28;20491;-75
2021/03/02 02:24:04;;;;;;;22.50;14.77;;;2.60;1.00;;;;;;5043534;28;20490;-74
2021/03/02 02:26:54;;;;;;;22.10;13.63;;;2.60;1.00;;;;;;5040342;28;21446;-74
2021/03/02 02:29:26;;;;;;;21.47;13.27;;;2.50;1.00;;;;;;5041512;28;20984;-74
2021/03/02 02:31:54;;;;;;;19.43;12.97;;;2.50;1.00;;;;;;5020418;28;20455;-74
2021/03/02 02:34:22;;;;;;;22.77;14.80;;;2.40;1.00;;;;;;5039965;28;20438;-74
2021/03/02 02:36:49;;;;;;;19.17;13.40;;;2.50;1.00;;;;;;5042518;28;20558;-74
2021/03/02 02:39:17;;;;;;;19.30;12.20;;;2.50;1.00;;;;;;5041803;28;20525;-74
2021/03/02 02:41:48;;;;;;;22.47;13.20;;;2.40;1.00;;;;;;5039690;28;20462;-74
2021/03/02 02:44:16;;;;;;;19.20;13.20;;;2.40;1.00;;;;;;5039162;28;20453;-75
2021/03/02 02:46:43;;;;;;;22.20;14.20;;;2.30;1.00;;;;;;5038738;28;20445;-75
2021/03/02 02:49:11;;;;;;;19.47;12.60;;;2.20;1.00;;;;;;5038701;28;20451;-75
2021/03/02 02:51:39;;;;;;;25.90;14.50;;;2.30;1.00;;;;;;5041643;28;20479;-74
2021/03/02 02:54:07;;;;;;;24.50;13.60;;;2.30;1.00;;;;;;5043261;28;20446;-74
2021/03/02 02:56:35;;;;;;;23.80;14.77;;;2.20;1.00;;;;;;5041619;28;20615;-74
2021/03/02 02:59:09;;;;;;;19.67;12.50;;;2.20;1.00;;;;;;5040792;28;20644;-74
2021/03/02 03:01:41;;;;;;;18.10;12.53;;;2.20;1.00;;;;;;5039704;28;21031;-76
2021/03/02 03:04:10;;;;;;;18.77;12.67;;;2.10;1.00;;;;;;5037656;28;20455;-72
2021/03/02 03:06:39;;;;;;;18.00;12.20;;;2.10;1.00;;;;;;5040907;28;20484;-74
2021/03/02 03:09:06;;;;;;;23.57;13.07;;;2.00;1.00;;;;;;5018687;28;20566;-74
2021/03/02 03:11:40;;;;;;;22.47;12.60;;;2.00;1.00;;;;;;5040096;28;21369;-74
2021/03/02 03:14:10;;;;;;;19.50;11.90;;;2.00;1.00;;;;;;5038555;28;20454;-74
2021/03/02 03:16:37;;;;;;;27.37;13.80;;;1.90;1.00;;;;;;5039437;28;20449;-75
2021/03/02 03:19:05;;;;;;;22.70;13.53;;;1.90;1.00;;;;;;5042226;28;20462;-74
2021/03/02 03:21:33;;;;;;;23.87;13.43;;;1.80;1.00;;;;;;5040494;28;20512;-74
2021/03/02 03:23:59;;;;;;;26.13;13.40;;;1.70;1.00;;;;;;5039404;28;20442;-74
2021/03/02 03:26:32;;;;;;;20.70;12.97;;;1.70;1.00;;;;;;5041010;28;20445;-74
2021/03/02 03:28:59;;;;;;;21.10;12.40;;;1.80;1.00;;;;;;5020834;28;20457;-73
2021/03/02 03:31:25;;;;;;;19.70;13.20;;;1.70;1.00;;;;;;5045886;28;20517;-73
2021/03/02 03:33:52;;;;;;;21.27;13.53;;;1.80;1.00;;;;;;5036801;28;20446;-74
2021/03/02 03:36:19;;;;;;;28.53;13.77;;;1.80;1.00;;;;;;5039395;28;20821;-74
2021/03/02 03:38:45;;;;;;;28.20;13.17;;;1.70;1.00;;;;;;5040034;28;20663;-74
2021/03/02 03:41:14;;;;;;;18.70;13.37;;;1.70;1.00;;;;;;5037926;28;20958;-74
2021/03/02 03:43:40;;;;;;;19.67;14.20;;;1.70;1.00;;;;;;5037038;28;20536;-74
2021/03/02 03:46:06;;;;;;;21.17;13.03;;;1.70;1.00;;;;;;5038398;28;21164;-74
2021/03/02 03:48:32;;;;;;;25.13;13.40;;;1.60;1.00;;;;;;5038555;28;20445;-74
2021/03/02 03:50:58;;;;;;;18.13;13.10;;;1.60;1.00;;;;;;5037458;28;22063;-74
2021/03/02 03:53:26;;;;;;;19.63;12.50;;;1.60;1.00;;;;;;5021772;28;25479;-74
2021/03/02 03:55:53;;;;;;;19.40;13.53;;;1.60;1.00;;;;;;5039560;28;20430;-74
2021/03/02 03:58:23;;;;;;;18.00;12.10;;;1.50;1.00;;;;;;5039334;28;20445;-74
2021/03/02 04:00:52;;;;;;;18.10;13.03;;;1.50;1.00;;;;;;5040460;28;20628;-74
2021/03/02 04:03:23;;;;;;;21.27;13.30;;;1.50;1.00;;;;;;5037834;28;20447;-74
2021/03/02 04:05:50;;;;;;;23.00;12.53;;;1.50;1.00;;;;;;5038610;28;20477;-74
2021/03/02 04:08:17;;;;;;;20.60;12.37;;;1.50;1.00;;;;;;5039014;28;20455;-74
2021/03/02 04:10:43;;;;;;;23.53;14.30;;;1.50;1.00;;;;;;5040539;28;20484;-74
2021/03/02 04:13:10;;;;;;;24.63;14.03;;;1.50;1.00;;;;;;5032305;28;20443;-74
2021/03/02 04:15:39;;;;;;;27.67;13.37;;;1.40;1.00;;;;;;5037893;28;20552;-74
2021/03/02 04:18:10;;;;;;;20.17;12.70;;;1.40;1.00;;;;;;5039593;28;20444;-74
2021/03/02 04:20:36;;;;;;;20.93;12.27;;;1.50;1.00;;;;;;5040238;28;20486;-74
2021/03/02 04:23:02;;;;;;;23.27;14.13;;;1.50;1.00;;;;;;5040282;28;20453;-74
2021/03/02 04:25:28;;;;;;;19.80;14.13;;;1.50;1.00;;;;;;5033826;28;20490;-74
2021/03/02 04:27:53;;;;;;;20.50;11.87;;;1.40;1.00;;;;;;5020246;28;20194;-74
2021/03/02 04:30:20;;;;;;;21.27;13.40;;;1.40;1.00;;;;;;5035570;28;20218;-74
2021/03/02 04:32:45;;;;;;;21.70;14.30;;;1.40;1.00;;;;;;5036381;28;20233;-74
2021/03/02 04:35:12;;;;;;;20.33;12.50;;;1.40;1.00;;;;;;5040783;28;20467;-74
2021/03/02 04:37:42;;;;;;;24.07;14.23;;;1.30;1.00;;;;;;5046996;28;20214;-74
2021/03/02 04:40:09;;;;;;;22.07;13.60;;;1.30;1.00;;;;;;5043434;28;20443;-74
2021/03/02 04:42:35;;;;;;;21.10;13.47;;;1.30;1.00;;;;;;5044568;28;20909;-75
2021/03/02 04:45:01;;;;;;;20.10;13.37;;;1.40;1.00;;;;;;5042380;28;20449;-74
2021/03/02 04:47:27;;;;;;;14.07;10.53;;;1.40;1.00;;;;;;5042264;28;20499;-74
2021/03/02 04:49:53;;;;;;;20.53;13.60;;;1.40;1.00;;;;;;5041721;28;20477;-74
2021/03/02 04:52:19;;;;;;;17.33;11.67;;;1.30;1.00;;;;;;5041251;28;20437;-73
2021/03/02 04:54:45;;;;;;;21.73;13.20;;;1.30;1.00;;;;;;5026499;28;20195;-74
2021/03/02 04:57:11;;;;;;;20.70;13.00;;;1.30;1.00;;;;;;5041811;28;20454;-74
2021/03/02 04:59:39;;;;;;;19.53;13.33;;;1.30;1.00;;;;;;5035264;28;20446;-75
2021/03/02 05:02:04;;;;;;;20.60;13.47;;;1.30;1.00;;;;;;5038375;28;20446;-74
2021/03/02 05:04:30;;;;;;;23.10;14.43;;;1.30;1.00;;;;;;5045629;28;20194;-74
2021/03/02 05:06:56;;;;;;;18.80;13.40;;;1.40;1.00;;;;;;5043134;28;20194;-74
2021/03/02 05:09:21;;;;;;;21.90;13.90;;;1.50;1.00;;;;;;5040561;28;20190;-76
2021/03/02 05:11:47;;;;;;;17.50;12.47;;;1.50;1.00;;;;;;5034626;28;20220;-74
2021/03/02 05:14:13;;;;;;;21.90;13.93;;;1.60;1.00;;;;;;5040290;28;20183;-74
2021/03/02 05:16:41;;;;;;;20.40;12.03;;;1.50;1.00;;;;;;5039215;28;20203;-74
2021/03/02 05:19:07;;;;;;;19.30;12.70;;;1.40;1.00;;;;;;5041782;28;20195;-74
2021/03/02 05:21:34;;;;;;;21.93;12.07;;;1.40;1.00;;;;;;5039564;28;20550;-74
2021/03/02 05:24:00;;;;;;;16.83;11.90;;;1.40;1.00;;;;;;5036521;28;21015;-74
2021/03/02 05:26:29;;;;;;;16.90;12.30;;;1.40;1.00;;;;;;5043234;28;20547;-75
2021/03/02 05:28:57;;;;;;;18.70;11.90;;;1.30;1.00;;;;;;5036752;28;20199;-75
2021/03/02 05:31:23;;;;;;;22.20;12.70;;;1.30;1.00;;;;;;5042397;28;20484;-73
2021/03/02 05:33:48;;;;;;;18.87;13.10;;;1.30;1.00;;;;;;5038381;28;20492;-72
2021/03/02 05:36:17;;;;;;;25.37;14.67;;;1.30;1.00;;;;;;5040903;28;21093;-73
2021/03/02 05:38:43;;;;;;;22.93;13.80;;;1.30;1.00;;;;;;5039129;28;20300;-73
2021/03/02 05:41:10;;;;;;;27.17;14.70;;;1.30;1.00;;;;;;5038446;28;20459;-73
2021/03/02 05:43:40;;;;;;;40.50;16.50;;;1.30;1.00;;;;;;5041805;28;20452;-74
2021/03/02 05:46:06;;;;;;;46.07;17.10;;;1.20;1.00;;;;;;5038582;28;20469;-74
2021/03/02 05:48:32;;;;;;;36.33;16.67;;;1.20;1.00;;;;;;5039449;28;20446;-74
2021/03/02 05:50:58;;;;;;;28.53;16.10;;;1.10;16.30;;;;;;5039972;28;20470;-73
2021/03/02 05:53:24;;;;;;;25.83;16.43;;;1.10;98.00;;;;;;5037584;28;20495;-74
2021/03/02 05:55:51;;;;;;;25.60;15.77;;;1.20;99.90;;;;;;5031639;28;20523;-74
2021/03/02 05:58:18;;;;;;;29.80;16.30;;;1.20;99.90;;;;;;5039606;28;20444;-73
2021/03/02 06:00:44;;;;;;;26.30;15.43;;;1.30;99.90;;;;;;5007848;28;20468;-74
2021/03/02 06:03:10;;;;;;;24.83;15.30;;;1.30;99.90;;;;;;5028163;28;20505;-73
2021/03/02 06:05:37;;;;;;;23.30;14.43;;;1.30;93.10;;;;;;5039626;28;20473;-73
2021/03/02 06:08:06;;;;;;;26.00;15.53;;;1.30;64.50;;;;;;5037802;28;22209;-74
2021/03/02 06:10:33;;;;;;;25.00;15.13;;;1.30;31.90;;;;;;5010317;28;20476;-73
2021/03/02 06:12:59;;;;;;;21.10;13.43;;;1.30;16.40;;;;;;5026996;28;20439;-74
2021/03/02 06:15:27;;;;;;;26.53;14.10;;;1.20;1.00;;;;;;5043254;28;20538;-73
2021/03/02 06:18:16;;;;;;;22.83;13.97;;;1.30;1.00;;;;;;5044353;28;21166;-74
2021/03/02 06:20:43;;;;;;;24.90;13.73;;;1.20;1.00;;;;;;5039624;28;20451;-73
2021/03/02 06:23:30;;;;;;;22.60;12.07;;;1.20;1.00;;;;;;5041914;28;20441;-73
2021/03/02 06:26:13;;;;;;;26.00;12.00;;;1.20;1.00;;;;;;5044578;28;20494;-74
2021/03/02 06:28:41;;;;;;;22.00;14.10;;;1.10;1.00;;;;;;5042658;28;20845;-74
2021/03/02 06:31:27;;;;;;;28.07;14.63;;;1.20;1.00;;;;;;5041007;28;21328;-74
2021/03/02 06:34:10;;;;;;;22.10;13.50;;;1.20;1.00;;;;;;5044492;28;21018;-74
2021/03/02 06:36:38;;;;;;;20.33;13.33;;;1.20;1.00;;;;;;5028555;28;20460;-71
2021/03/02 06:39:30;;;;;;;24.97;14.40;;;1.20;1.00;;;;;;5042902;28;20451;-72
2021/03/02 06:42:18;;;;;;;28.07;14.63;;;1.20;1.00;;;;;;5042616;28;20451;-72
2021/03/02 06:45:03;;;;;;;22.20;13.63;;;1.30;1.00;;;;;;5042964;28;21155;-72
2021/03/02 06:47:30;;;;;;;23.70;14.77;;;1.40;1.00;;;;;;5047976;28;24244;-72
2021/03/02 06:49:56;;;;;;;21.53;12.83;;;1.40;1.00;;;;;;5045935;28;20487;-75
2021/03/02 06:52:21;;;;;;;24.00;13.43;;;1.50;1.00;;;;;;5044151;28;20454;-75
2021/03/02 06:54:49;;;;;;;26.07;16.17;;;1.50;1.00;;;;;;5043809;28;20191;-72
2021/03/02 06:57:22;;;;;;;25.60;14.83;;;1.60;1.00;;;;;;5045032;28;20449;-72
2021/03/02 07:00:01;;;;;;;23.43;13.03;;;1.60;1.00;;;;;;5046297;28;20481;-72
2021/03/02 07:02:31;;;;;;;21.07;13.63;;;1.60;1.00;;;;;;5042037;28;20551;-72
2021/03/02 07:05:17;;;;;;;24.80;14.80;;;1.60;1.00;;;;;;5049250;28;20804;-72
2021/03/02 07:07:44;;;;;;;21.23;12.40;;;1.70;1.00;;;;;;5048087;28;20553;-73
2021/03/02 07:10:12;;;;;;;30.87;14.47;;;1.70;1.00;;;;;;5046021;28;20469;-73
2021/03/02 07:12:42;;;;;;;20.40;12.50;;;1.80;1.00;;;;;;5044251;28;20552;-73
2021/03/02 07:15:11;;;;;;;18.73;12.93;;;1.80;1.00;;;;;;5045903;28;20448;-73
2021/03/02 07:17:44;;;;;;;26.37;12.90;;;1.80;1.00;;;;;;5043788;28;21358;-73
2021/03/02 07:20:12;;;;;;;26.67;13.30;;;1.80;1.00;;;;;;5039375;28;22929;-73
2021/03/02 07:22:42;;;;;;;25.37;13.10;;;1.90;1.00;;;;;;5039230;28;20506;-73
2021/03/02 07:25:10;;;;;;;16.60;12.17;;;2.00;1.00;;;;;;5038775;28;21075;-73
2021/03/02 07:27:48;;;;;;;24.37;12.90;;;2.00;1.00;;;;;;5038859;28;20446;-73
2021/03/02 07:30:14;;;;;;;20.30;14.00;;;2.10;1.00;;;;;;5025398;28;20464;-73
2021/03/02 07:32:41;;;;;;;20.33;13.83;;;2.20;1.00;;;;;;5035716;28;20730;-72
2021/03/02 07:35:19;;;;;;;20.47;12.97;;;2.40;1.00;;;;;;5015597;28;20843;-73
2021/03/02 07:37:44;;;;;;;19.37;11.57;;;2.40;1.00;;;;;;5018777;28;20463;-73
2021/03/02 07:40:13;;;;;;;19.53;11.90;;;2.50;1.00;;;;;;5037060;28;22332;-74
2021/03/02 07:42:39;;;;;;;18.73;12.00;;;2.50;1.00;;;;;;5040096;28;20450;-73
2021/03/02 07:45:06;;;;;;;19.90;10.70;;;2.60;1.00;;;;;;5039059;28;20815;-73
2021/03/02 07:47:51;;;;;;;19.43;11.30;;;2.70;1.00;;;;;;5037640;28;20463;-73
2021/03/02 07:50:24;;;;;;;17.50;10.10;;;2.80;1.00;;;;;;5009836;28;20485;-73
2021/03/02 07:53:20;;;;;;;18.33;11.37;;;2.90;1.00;;;;;;5021120;28;20496;-73
2021/03/02 07:56:06;;;;;;;20.03;12.23;;;3.00;1.00;;;;;;5036256;28;20472;-73
2021/03/02 07:58:32;;;;;;;22.93;13.00;;;3.00;1.00;;;;;;5005212;28;20480;-74
2021/03/02 08:01:20;;;;;;;22.87;12.57;;;3.10;1.00;;;;;;5023532;28;20448;-73
2021/03/02 08:03:46;;;;;;;20.47;11.07;;;3.20;1.00;;;;;;5020711;28;20700;-73
2021/03/02 08:06:21;;;;;;;20.40;11.73;;;3.30;1.00;;;;;;5023141;28;20489;-73
2021/03/02 08:08:48;;;;;;;16.83;10.80;;;3.40;1.00;;;;;;5038914;28;20504;-73
2021/03/02 08:11:34;;;;;;;17.60;9.63;;;3.50;1.00;;;;;;5046045;28;20460;-73
2021/03/02 08:14:30;;;;;;;17.20;10.90;;;3.50;1.00;;;;;;5041940;28;20454;-73
2021/03/02 08:16:56;;;;;;;24.73;11.40;;;3.60;1.00;;;;;;5026622;28;21067;-73
2021/03/02 08:19:47;;;;;;;20.60;12.77;;;3.80;1.00;;;;;;5044108;28;20451;-73
2021/03/02 08:22:19;;;;;;;25.30;13.60;;;3.80;1.00;;;;;;5024520;28;20208;-73
2021/03/02 08:24:59;;;;;;;22.90;13.40;;;4.00;1.00;;;;;;5011476;28;20432;-72
2021/03/02 08:27:46;;;;;;;17.73;11.97;;;4.10;1.00;;;;;;5025193;28;20456;-72
2021/03/02 08:30:13;;;;;;;19.23;12.70;;;4.30;1.00;;;;;;5010231;28;21829;-73
2021/03/02 08:32:40;;;;;;;19.73;11.83;;;4.40;1.00;;;;;;5025157;28;20458;-73
2021/03/02 08:35:39;;;;;;;17.03;11.10;;;4.60;1.00;;;;;;5023630;28;20556;-73
2021/03/02 08:38:08;;;;;;;22.13;12.33;;;4.70;1.00;;;;;;5023689;28;20827;-73
2021/03/02 08:40:33;;;;;;;17.20;11.90;;;4.90;1.00;;;;;;5021117;28;20473;-72
2021/03/02 08:43:07;;;;;;;16.10;10.70;;;5.10;1.00;;;;;;5023696;28;20979;-73
2021/03/02 08:46:00;;;;;;;19.80;11.83;;;5.20;1.00;;;;;;5027013;28;20674;-72
2021/03/02 08:48:31;;;;;;;15.80;10.30;;;5.40;1.00;;;;;;5026889;28;20486;-74
2021/03/02 08:51:05;;;;;;;19.23;12.57;;;5.60;1.00;;;;;;5034201;28;20969;-73
2021/03/02 08:53:40;;;;;;;23.47;11.40;;;5.70;1.00;;;;;;5028251;28;20927;-73
2021/03/02 08:56:08;;;;;;;16.90;11.33;;;5.80;1.00;;;;;;5031742;28;25114;-73
2021/03/02 08:58:40;;;;;;;16.43;11.53;;;5.90;1.00;;;;;;5032604;28;20452;-73
2021/03/02 09:01:13;;;;;;;21.80;11.13;;;6.00;1.00;;;;;;5031428;28;20449;-73
2021/03/02 09:03:42;;;;;;;19.57;12.20;;;6.10;1.00;;;;;;5032984;28;20970;-73
2021/03/02 09:06:12;;;;;;;22.37;13.20;;;6.30;1.00;;;;;;5033015;28;20472;-73
2021/03/02 09:08:49;;;;;;;17.60;11.90;;;6.40;1.00;;;;;;5028845;28;20627;-73
2021/03/02 09:11:17;;;;;;;17.73;10.77;;;6.50;1.00;;;;;;5017897;28;21437;-73
2021/03/02 09:13:43;;;;;;;21.77;13.67;;;6.70;1.00;;;;;;5029119;28;20441;-73
2021/03/02 09:16:35;;;;;;;17.57;11.37;;;6.80;1.00;;;;;;5025661;28;20851;-73
2021/03/02 09:19:13;;;;;;;21.60;11.73;;;7.00;1.00;;;;;;5027583;28;20518;-73
2021/03/02 09:21:43;;;;;;;19.50;12.40;;;7.20;1.00;;;;;;5030536;28;21501;-73
2021/03/02 09:24:17;;;;;;;20.70;11.50;;;7.40;1.00;;;;;;5010324;28;20442;-73
2021/03/02 09:26:56;;;;;;;18.03;10.40;;;7.50;1.00;;;;;;5028107;28;20451;-73
2021/03/02 09:29:33;;;;;;;20.47;11.60;;;7.80;1.00;;;;;;5033438;28;20504;-73
2021/03/02 09:32:00;;;;;;;15.60;9.33;;;8.00;1.00;;;;;;5023531;28;20474;-73
2021/03/02 09:34:39;;;;;;;15.60;8.30;;;8.20;1.00;;;;;;5024322;28;21021;-74
2021/03/02 09:37:15;;;;;;;12.53;8.50;;;9.00;1.00;;;;;;5027771;28;20480;-74
2021/03/02 09:39:58;;;;;;;11.50;7.43;;;9.40;1.00;;;;;;5023175;28;20904;-74
2021/03/02 09:42:26;;;;;;;17.90;8.70;;;9.70;1.00;;;;;;5023503;28;21082;-74
2021/03/02 09:44:59;;;;;;;9.60;7.60;;;9.90;1.00;;;;;;5025523;28;20521;-74
2021/03/02 09:47:33;;;;;;;11.80;7.80;;;10.00;1.00;;;;;;5024846;28;20536;-74
2021/03/02 09:50:04;;;;;;;13.17;7.57;;;10.10;1.00;;;;;;5021211;28;20457;-74
2021/03/02 09:52:37;;;;;;;12.27;7.33;;;10.40;1.00;;;;;;5026908;28;21675;-73
2021/03/02 09:55:23;;;;;;;12.27;7.90;;;10.50;1.00;;;;;;5026523;28;20695;-74
2021/03/02 09:58:14;;;;;;;15.27;8.40;;;10.60;1.00;;;;;;5028943;28;20745;-74
2021/03/02 10:00:46;;;;;;;13.03;8.70;;;10.70;1.00;;;;;;5025963;28;20466;-74
2021/03/02 10:03:22;;;;;;;17.73;8.53;;;10.90;1.00;;;;;;5021623;28;20549;-74
2021/03/02 10:06:00;;;;;;;11.70;7.93;;;11.00;1.00;;;;;;5028471;28;20455;-74
2021/03/02 10:08:46;;;;;;;13.47;8.90;;;11.20;1.00;;;;;;5026746;28;20516;-74
2021/03/02 10:11:12;;;;;;;11.57;8.13;;;11.30;1.00;;;;;;5028824;28;20979;-74
2021/03/02 10:13:39;;;;;;;13.00;8.33;;;11.40;1.00;;;;;;5020973;28;20536;-74
2021/03/02 10:16:17;;;;;;;11.97;7.90;;;11.40;1.00;;;;;;5024684;28;20477;-73
2021/03/02 10:18:48;;;;;;;13.20;8.40;;;11.50;1.00;;;;;;5026126;28;20443;-74
2021/03/02 10:21:14;;;;;;;12.53;8.30;;;11.60;1.00;;;;;;5027591;28;20473;-74
2021/03/02 10:23:42;;;;;;;15.87;8.00;;;11.60;1.00;;;;;;5028989;28;20549;-73
2021/03/02 10:26:08;;;;;;;15.03;8.30;;;11.60;1.00;;;;;;5008080;28;20763;-74
2021/03/02 10:28:35;;;;;;;11.57;8.30;;;11.60;1.00;;;;;;5008510;28;20513;-74
2021/03/02 10:31:01;;;;;;;16.10;7.00;;;11.80;1.00;;;;;;5026905;28;20477;-73
2021/03/02 10:33:27;;;;;;;17.40;8.07;;;12.00;1.00;;;;;;5021723;28;20500;-73
2021/03/02 10:35:56;;;;;;;10.73;7.10;;;12.10;1.00;;;;;;5026891;28;20469;-74
2021/03/02 10:38:22;;;;;;;11.30;7.43;;;12.10;1.00;;;;;;5033885;28;20444;-74
2021/03/02 10:40:47;;;;;;;12.30;7.80;;;12.20;1.00;;;;;;5017366;28;20465;-74
2021/03/02 10:43:13;;;;;;;12.50;7.03;;;12.20;1.00;;;;;;5020646;28;20984;-74
2021/03/02 10:45:39;;;;;;;8.40;6.30;;;12.30;1.00;;;;;;5020076;28;20272;-75
2021/03/02 10:48:05;;;;;;;10.33;6.50;;;12.40;1.00;;;;;;5023559;28;20197;-74
2021/03/02 10:50:32;;;;;;;9.07;6.33;;;12.50;1.00;;;;;;5021756;28;20239;-74
2021/03/02 10:52:58;;;;;;;13.23;7.23;;;12.50;1.00;;;;;;5022640;28;20513;-74
2021/03/02 10:55:24;;;;;;;10.33;6.37;;;12.50;1.00;;;;;;5022101;28;20510;-72
2021/03/02 10:57:50;;;;;;;9.20;6.53;;;12.60;1.00;;;;;;5022470;28;20677;-72
2021/03/02 11:00:17;;;;;;;9.97;6.60;;;12.70;1.00;;;;;;5019842;28;20716;-73
2021/03/02 11:02:44;;;;;;;8.57;5.70;;;12.70;1.00;;;;;;5024498;28;20482;-73
2021/03/02 11:05:11;;;;;;;9.13;5.43;;;12.80;1.00;;;;;;5024335;28;20897;-72
2021/03/02 11:07:37;;;;;;;10.30;6.60;;;12.80;1.00;;;;;;5024276;28;20522;-73
2021/03/02 11:10:04;;;;;;;8.07;5.90;;;13.00;1.00;;;;;;5004699;28;20449;-73
2021/03/02 11:12:30;;;;;;;12.40;7.30;;;13.00;1.00;;;;;;5024667;28;21003;-73
2021/03/02 11:14:55;;;;;;;8.40;5.73;;;13.20;1.00;;;;;;5030617;28;20449;-74
2021/03/02 11:17:21;;;;;;;10.93;6.33;;;13.30;1.00;;;;;;5005665;28;22031;-72
2021/03/02 11:19:49;;;;;;;10.83;5.93;;;13.40;1.00;;;;;;5024711;28;20205;-74
2021/03/02 11:22:15;;;;;;;11.03;6.40;;;13.40;1.00;;;;;;5024979;28;20587;-73
2021/03/02 11:24:40;;;;;;;8.87;5.70;;;13.50;1.00;;;;;;5023659;28;20447;-73
2021/03/02 11:27:06;;;;;;;9.80;5.30;;;13.40;1.00;;;;;;5020965;28;20600;-73
2021/03/02 11:29:35;;;;;;;8.60;4.37;;;13.50;1.00;;;;;;5021607;28;20436;-73
2021/03/02 11:32:03;;;;;;;6.73;4.43;;;13.60;1.00;;;;;;5025812;28;20302;-73
2021/03/02 11:34:29;;;;;;;11.20;4.13;;;13.90;1.00;;;;;;5019503;28;20457;-73
2021/03/02 11:36:54;;;;;;;7.67;3.83;;;14.20;1.00;;;;;;5021038;28;21172;-74
2021/03/02 11:39:20;;;;;;;6.03;3.87;;;14.20;1.00;;;;;;5021620;28;20220;-73
2021/03/02 11:41:46;;;;;;;6.03;3.40;;;14.20;1.00;;;;;;5012231;28;20739;-73
2021/03/02 11:44:11;;;;;;;5.90;4.00;;;14.30;1.00;;;;;;5020223;28;20190;-73
2021/03/02 11:46:37;;;;;;;7.13;4.47;;;14.50;1.00;;;;;;5004589;28;23289;-73
2021/03/02 11:49:03;;;;;;;9.27;4.80;;;14.40;1.00;;;;;;5018548;28;20774;-73
2021/03/02 11:51:28;;;;;;;6.27;4.73;;;14.50;1.00;;;;;;5016463;28;20273;-73
2021/03/02 11:53:54;;;;;;;7.87;3.70;;;14.50;1.00;;;;;;5022809;28;20499;-73
2021/03/02 11:56:20;;;;;;;5.03;4.23;;;14.40;1.00;;;;;;5029177;28;20244;-72
2021/03/02 11:58:46;;;;;;;5.87;4.70;;;14.30;1.00;;;;;;5042438;28;20532;-73
2021/03/02 12:01:12;;;;;;;6.87;4.07;;;14.30;1.00;;;;;;5009959;28;21754;-73
2021/03/02 12:03:37;;;;;;;6.63;4.03;;;14.30;1.00;;;;;;5017942;28;20645;-73
2021/03/02 12:06:03;;;;;;;7.77;4.87;;;14.40;1.00;;;;;;5006055;28;20318;-73
2021/03/02 12:08:29;;;;;;;6.50;3.67;;;14.50;1.00;;;;;;5006810;28;20962;-73
2021/03/02 12:10:55;;;;;;;8.80;3.57;;;14.50;1.00;;;;;;5023249;28;20496;-73
2021/03/02 12:13:22;;;;;;;7.00;4.50;;;14.50;1.00;;;;;;5026877;28;20195;-73
2021/03/02 12:15:48;;;;;;;5.67;3.83;;;14.50;1.00;;;;;;5025998;28;20542;-73
2021/03/02 12:18:14;;;;;;;7.53;3.77;;;14.70;1.00;;;;;;5006379;28;20526;-73
2021/03/02 12:20:39;;;;;;;6.30;4.60;;;14.70;1.00;;;;;;5028021;28;20455;-73
2021/03/02 12:23:05;;;;;;;8.43;4.63;;;14.60;1.00;;;;;;5012564;28;20292;-73
2021/03/02 12:25:31;;;;;;;7.93;4.57;;;14.80;1.00;;;;;;4998382;28;21004;-74
2021/03/02 12:27:57;;;;;;;12.13;5.10;;;14.70;1.00;;;;;;5016195;28;20448;-73
2021/03/02 12:30:23;;;;;;;8.60;5.83;;;14.70;1.00;;;;;;5024412;28;20759;-73
2021/03/02 12:32:50;;;;;;;8.33;5.63;;;14.90;1.00;;;;;;5017971;28;20204;-73
2021/03/02 12:35:16;;;;;;;11.57;5.30;;;15.00;1.00;;;;;;5023596;28;20441;-73
2021/03/02 12:37:42;;;;;;;10.60;5.63;;;15.00;1.00;;;;;;5021985;28;22332;-73
2021/03/02 12:40:08;;;;;;;8.87;5.30;;;15.00;1.00;;;;;;5020662;28;20263;-73
2021/03/02 12:42:34;;;;;;;8.20;5.47;;;14.90;1.00;;;;;;5016341;28;20469;-74
2021/03/02 12:45:00;;;;;;;7.63;5.07;;;14.90;1.00;;;;;;5019620;28;20623;-73
2021/03/02 12:47:25;;;;;;;12.93;6.20;;;14.90;1.00;;;;;;5021381;28;20510;-74
2021/03/02 12:49:51;;;;;;;6.97;5.67;;;14.80;1.00;;;;;;5023073;28;20427;-73
2021/03/02 12:52:17;;;;;;;10.17;5.63;;;14.80;1.00;;;;;;5021910;28;20378;-73
2021/03/02 12:54:43;;;;;;;10.73;5.87;;;14.90;1.00;;;;;;5022076;28;20446;-74
2021/03/02 12:57:08;;;;;;;10.73;5.60;;;14.90;1.00;;;;;;5029186;28;20279;-73
2021/03/02 12:59:34;;;;;;;38.90;6.20;;;14.80;1.00;;;;;;5028353;28;20495;-73